Yokohama, Japan
Current Conditions -  °F | °C
As of 5:30 AM on Tuesday 25 Nov 2014 (Local Time) from RJTT Reporting Station
Rain Showers Rain Showers  
Wind Chill: 52°   Ceiling: 14000
Heat Index: 52°   Visibility: 6mi
Dew Point: 46°   Wind: 5mph
Humidity: 82%   Direction: 270°W
Pressure: 29.94"   Gusts: NA
Location:  35.47°N, 139.62°E
Report Text: RJTT 242030Z 27004KT 9999 VCSH FEW015 BKN140 11/08 Q1014 NOSIG
Loading
Personal Weather Stations






























Interactive Weather Map New forecast layout! Learn more

10-Day Weather Forecast

Advertisements
Track Severe Weather on mobile